sensor_id;sensor_type;location;lat;lon;timestamp;P1;durP1;ratioP1;P2;durP2;ratioP2
65206;SDS011;58477;48.072;11.970;2024-02-26T00:00:36;13.88;;;7.15;;
65206;SDS011;58477;48.072;11.970;2024-02-26T00:03:02;13.70;;;7.72;;
65206;SDS011;58477;48.072;11.970;2024-02-26T00:05:27;12.45;;;6.93;;
65206;SDS011;58477;48.072;11.970;2024-02-26T00:07:53;10.60;;;6.47;;
65206;SDS011;58477;48.072;11.970;2024-02-26T00:10:18;13.30;;;8.20;;
65206;SDS011;58477;48.072;11.970;2024-02-26T00:12:44;12.30;;;7.28;;
65206;SDS011;58477;48.072;11.970;2024-02-26T00:15:09;11.55;;;6.80;;
65206;SDS011;58477;48.072;11.970;2024-02-26T00:17:35;10.25;;;6.03;;
65206;SDS011;58477;48.072;11.970;2024-02-26T00:20:01;10.60;;;6.63;;
65206;SDS011;58477;48.072;11.970;2024-02-26T00:22:30;11.55;;;6.78;;
65206;SDS011;58477;48.072;11.970;2024-02-26T00:24:56;12.10;;;7.05;;
65206;SDS011;58477;48.072;11.970;2024-02-26T00:27:22;8.88;;;5.53;;
65206;SDS011;58477;48.072;11.970;2024-02-26T00:29:47;8.48;;;5.65;;
65206;SDS011;58477;48.072;11.970;2024-02-26T00:32:12;10.70;;;6.50;;
65206;SDS011;58477;48.072;11.970;2024-02-26T00:34:38;10.50;;;6.40;;
65206;SDS011;58477;48.072;11.970;2024-02-26T00:37:03;10.82;;;5.60;;
65206;SDS011;58477;48.072;11.970;2024-02-26T00:39:29;11.10;;;6.25;;
65206;SDS011;58477;48.072;11.970;2024-02-26T00:41:54;11.07;;;5.90;;
65206;SDS011;58477;48.072;11.970;2024-02-26T00:44:19;11.18;;;7.10;;
65206;SDS011;58477;48.072;11.970;2024-02-26T00:46:45;11.73;;;6.25;;
65206;SDS011;58477;48.072;11.970;2024-02-26T00:49:10;7.80;;;5.13;;
65206;SDS011;58477;48.072;11.970;2024-02-26T00:51:35;8.43;;;5.45;;
65206;SDS011;58477;48.072;11.970;2024-02-26T00:54:01;12.30;;;5.75;;
65206;SDS011;58477;48.072;11.970;2024-02-26T00:56:27;8.48;;;5.63;;
65206;SDS011;58477;48.072;11.970;2024-02-26T00:58:52;7.28;;;4.60;;
65206;SDS011;58477;48.072;11.970;2024-02-26T01:01:17;8.93;;;5.53;;
65206;SDS011;58477;48.072;11.970;2024-02-26T01:03:43;10.85;;;5.82;;
65206;SDS011;58477;48.072;11.970;2024-02-26T01:06:08;7.53;;;5.68;;
65206;SDS011;58477;48.072;11.970;2024-02-26T01:08:34;9.02;;;5.43;;
65206;SDS011;58477;48.072;11.970;2024-02-26T01:11:00;9.75;;;5.18;;
65206;SDS011;58477;48.072;11.970;2024-02-26T01:13:26;5.82;;;4.13;;
65206;SDS011;58477;48.072;11.970;2024-02-26T01:15:51;6.50;;;4.70;;
65206;SDS011;58477;48.072;11.970;2024-02-26T01:18:17;8.15;;;4.75;;
65206;SDS011;58477;48.072;11.970;2024-02-26T01:20:42;7.32;;;4.30;;
65206;SDS011;58477;48.072;11.970;2024-02-26T01:23:08;6.20;;;4.63;;
65206;SDS011;58477;48.072;11.970;2024-02-26T01:25:33;7.22;;;5.07;;
65206;SDS011;58477;48.072;11.970;2024-02-26T01:27:58;6.53;;;4.47;;
65206;SDS011;58477;48.072;11.970;2024-02-26T01:30:24;6.88;;;4.13;;
65206;SDS011;58477;48.072;11.970;2024-02-26T01:32:49;6.00;;;4.30;;
65206;SDS011;58477;48.072;11.970;2024-02-26T01:35:15;7.22;;;4.65;;
65206;SDS011;58477;48.072;11.970;2024-02-26T01:37:40;7.35;;;3.95;;
65206;SDS011;58477;48.072;11.970;2024-02-26T01:40:06;6.90;;;4.40;;
65206;SDS011;58477;48.072;11.970;2024-02-26T01:42:32;9.00;;;4.63;;
65206;SDS011;58477;48.072;11.970;2024-02-26T01:44:58;5.97;;;4.05;;
65206;SDS011;58477;48.072;11.970;2024-02-26T01:47:24;8.90;;;5.07;;
65206;SDS011;58477;48.072;11.970;2024-02-26T01:49:51;5.97;;;4.15;;
65206;SDS011;58477;48.072;11.970;2024-02-26T01:52:17;7.22;;;4.28;;
65206;SDS011;58477;48.072;11.970;2024-02-26T01:54:43;9.02;;;4.80;;
65206;SDS011;58477;48.072;11.970;2024-02-26T01:57:10;6.32;;;3.92;;
65206;SDS011;58477;48.072;11.970;2024-02-26T01:59:37;4.72;;;3.67;;
65206;SDS011;58477;48.072;11.970;2024-02-26T02:02:05;6.80;;;4.18;;
65206;SDS011;58477;48.072;11.970;2024-02-26T02:04:32;5.18;;;3.72;;
65206;SDS011;58477;48.072;11.970;2024-02-26T02:06:58;5.93;;;3.85;;
65206;SDS011;58477;48.072;11.970;2024-02-26T02:09:26;5.07;;;3.20;;
65206;SDS011;58477;48.072;11.970;2024-02-26T02:11:52;6.13;;;3.50;;
65206;SDS011;58477;48.072;11.970;2024-02-26T02:14:18;4.50;;;3.17;;
65206;SDS011;58477;48.072;11.970;2024-02-26T02:16:44;5.75;;;3.65;;
65206;SDS011;58477;48.072;11.970;2024-02-26T02:19:09;4.40;;;3.45;;
65206;SDS011;58477;48.072;11.970;2024-02-26T02:21:34;5.97;;;3.80;;
65206;SDS011;58477;48.072;11.970;2024-02-26T02:24:00;4.05;;;3.13;;
65206;SDS011;58477;48.072;11.970;2024-02-26T02:26:26;5.38;;;3.38;;
65206;SDS011;58477;48.072;11.970;2024-02-26T02:28:51;6.68;;;3.92;;
65206;SDS011;58477;48.072;11.970;2024-02-26T02:31:18;4.72;;;3.30;;
65206;SDS011;58477;48.072;11.970;2024-02-26T02:33:44;5.40;;;3.60;;
65206;SDS011;58477;48.072;11.970;2024-02-26T02:36:09;5.15;;;3.42;;
65206;SDS011;58477;48.072;11.970;2024-02-26T02:38:36;4.07;;;3.30;;
65206;SDS011;58477;48.072;11.970;2024-02-26T02:41:02;4.95;;;3.28;;
65206;SDS011;58477;48.072;11.970;2024-02-26T02:43:28;3.58;;;3.05;;
65206;SDS011;58477;48.072;11.970;2024-02-26T02:45:53;5.18;;;3.78;;
65206;SDS011;58477;48.072;11.970;2024-02-26T02:48:19;4.28;;;3.17;;
65206;SDS011;58477;48.072;11.970;2024-02-26T02:50:44;5.22;;;3.60;;
65206;SDS011;58477;48.072;11.970;2024-02-26T02:53:09;5.00;;;3.78;;
65206;SDS011;58477;48.072;11.970;2024-02-26T02:55:35;5.40;;;3.47;;
65206;SDS011;58477;48.072;11.970;2024-02-26T02:58:00;5.55;;;3.47;;
65206;SDS011;58477;48.072;11.970;2024-02-26T03:00:26;4.93;;;3.45;;
65206;SDS011;58477;48.072;11.970;2024-02-26T03:02:51;5.10;;;3.22;;
65206;SDS011;58477;48.072;11.970;2024-02-26T03:05:16;5.22;;;3.28;;
65206;SDS011;58477;48.072;11.970;2024-02-26T03:07:42;4.97;;;3.30;;
65206;SDS011;58477;48.072;11.970;2024-02-26T03:10:07;4.40;;;2.80;;
65206;SDS011;58477;48.072;11.970;2024-02-26T03:12:33;4.10;;;3.20;;
65206;SDS011;58477;48.072;11.970;2024-02-26T03:14:59;5.70;;;3.20;;
65206;SDS011;58477;48.072;11.970;2024-02-26T03:17:27;5.53;;;3.85;;
65206;SDS011;58477;48.072;11.970;2024-02-26T03:19:53;3.38;;;2.95;;
65206;SDS011;58477;48.072;11.970;2024-02-26T03:22:19;5.07;;;3.58;;
65206;SDS011;58477;48.072;11.970;2024-02-26T03:24:45;5.63;;;3.65;;
65206;SDS011;58477;48.072;11.970;2024-02-26T03:27:11;5.18;;;3.58;;
65206;SDS011;58477;48.072;11.970;2024-02-26T03:29:39;5.95;;;3.35;;
65206;SDS011;58477;48.072;11.970;2024-02-26T03:32:05;6.07;;;3.45;;
65206;SDS011;58477;48.072;11.970;2024-02-26T03:34:31;12.27;;;3.47;;
65206;SDS011;58477;48.072;11.970;2024-02-26T03:36:59;5.45;;;3.58;;
65206;SDS011;58477;48.072;11.970;2024-02-26T03:39:25;6.80;;;3.78;;
65206;SDS011;58477;48.072;11.970;2024-02-26T03:41:50;3.50;;;2.47;;
65206;SDS011;58477;48.072;11.970;2024-02-26T03:44:15;5.95;;;3.80;;
65206;SDS011;58477;48.072;11.970;2024-02-26T03:46:41;7.00;;;3.53;;
65206;SDS011;58477;48.072;11.970;2024-02-26T03:49:08;3.15;;;2.85;;
65206;SDS011;58477;48.072;11.970;2024-02-26T03:51:33;5.82;;;3.75;;
65206;SDS011;58477;48.072;11.970;2024-02-26T03:53:58;7.18;;;3.90;;
65206;SDS011;58477;48.072;11.970;2024-02-26T03:56:25;3.75;;;3.00;;
65206;SDS011;58477;48.072;11.970;2024-02-26T03:58:50;3.28;;;2.92;;
65206;SDS011;58477;48.072;11.970;2024-02-26T04:01:16;5.13;;;3.22;;
65206;SDS011;58477;48.072;11.970;2024-02-26T04:03:41;5.80;;;3.50;;
65206;SDS011;58477;48.072;11.970;2024-02-26T04:06:10;4.75;;;3.05;;
65206;SDS011;58477;48.072;11.970;2024-02-26T04:08:43;4.50;;;3.17;;
65206;SDS011;58477;48.072;11.970;2024-02-26T04:11:09;5.65;;;3.00;;
65206;SDS011;58477;48.072;11.970;2024-02-26T04:13:34;5.88;;;3.25;;
65206;SDS011;58477;48.072;11.970;2024-02-26T04:16:00;4.72;;;3.33;;
65206;SDS011;58477;48.072;11.970;2024-02-26T04:18:29;4.63;;;2.97;;
65206;SDS011;58477;48.072;11.970;2024-02-26T04:20:54;3.45;;;2.75;;
65206;SDS011;58477;48.072;11.970;2024-02-26T04:23:19;3.28;;;2.45;;
65206;SDS011;58477;48.072;11.970;2024-02-26T04:25:45;3.10;;;2.60;;
65206;SDS011;58477;48.072;11.970;2024-02-26T04:28:10;4.32;;;2.90;;
65206;SDS011;58477;48.072;11.970;2024-02-26T04:30:36;2.58;;;2.30;;
65206;SDS011;58477;48.072;11.970;2024-02-26T04:33:01;3.90;;;3.10;;
65206;SDS011;58477;48.072;11.970;2024-02-26T04:35:27;3.00;;;2.20;;
65206;SDS011;58477;48.072;11.970;2024-02-26T04:37:52;4.90;;;3.38;;
65206;SDS011;58477;48.072;11.970;2024-02-26T04:40:18;3.88;;;3.00;;
65206;SDS011;58477;48.072;11.970;2024-02-26T04:42:43;4.68;;;2.83;;
65206;SDS011;58477;48.072;11.970;2024-02-26T04:45:08;4.13;;;2.30;;
65206;SDS011;58477;48.072;11.970;2024-02-26T04:47:34;3.80;;;2.83;;
65206;SDS011;58477;48.072;11.970;2024-02-26T04:49:59;3.20;;;2.90;;
65206;SDS011;58477;48.072;11.970;2024-02-26T04:52:25;3.72;;;2.55;;
65206;SDS011;58477;48.072;11.970;2024-02-26T04:54:50;4.20;;;2.28;;
65206;SDS011;58477;48.072;11.970;2024-02-26T04:57:15;3.38;;;2.58;;
65206;SDS011;58477;48.072;11.970;2024-02-26T04:59:43;4.43;;;3.10;;
65206;SDS011;58477;48.072;11.970;2024-02-26T05:02:10;5.22;;;3.08;;
65206;SDS011;58477;48.072;11.970;2024-02-26T05:04:35;3.20;;;2.42;;
65206;SDS011;58477;48.072;11.970;2024-02-26T05:07:00;4.75;;;2.80;;
65206;SDS011;58477;48.072;11.970;2024-02-26T05:09:26;2.60;;;2.25;;
65206;SDS011;58477;48.072;11.970;2024-02-26T05:11:51;2.95;;;2.45;;
65206;SDS011;58477;48.072;11.970;2024-02-26T05:14:17;3.03;;;2.08;;
65206;SDS011;58477;48.072;11.970;2024-02-26T05:16:42;3.25;;;2.50;;
65206;SDS011;58477;48.072;11.970;2024-02-26T05:19:07;2.20;;;2.00;;
65206;SDS011;58477;48.072;11.970;2024-02-26T05:21:33;3.60;;;2.17;;
65206;SDS011;58477;48.072;11.970;2024-02-26T05:23:59;2.13;;;1.92;;
65206;SDS011;58477;48.072;11.970;2024-02-26T05:26:24;3.33;;;2.15;;
65206;SDS011;58477;48.072;11.970;2024-02-26T05:28:50;2.20;;;1.90;;
65206;SDS011;58477;48.072;11.970;2024-02-26T05:31:16;3.08;;;2.38;;
65206;SDS011;58477;48.072;11.970;2024-02-26T05:33:43;2.30;;;2.10;;
65206;SDS011;58477;48.072;11.970;2024-02-26T05:36:08;2.50;;;2.30;;
65206;SDS011;58477;48.072;11.970;2024-02-26T05:38:34;3.70;;;2.10;;
65206;SDS011;58477;48.072;11.970;2024-02-26T05:40:59;2.22;;;2.03;;
65206;SDS011;58477;48.072;11.970;2024-02-26T05:43:25;2.60;;;1.73;;
65206;SDS011;58477;48.072;11.970;2024-02-26T05:45:51;3.30;;;2.22;;
65206;SDS011;58477;48.072;11.970;2024-02-26T05:48:17;2.20;;;1.95;;
65206;SDS011;58477;48.072;11.970;2024-02-26T05:50:44;2.55;;;1.77;;
65206;SDS011;58477;48.072;11.970;2024-02-26T05:53:10;1.70;;;1.60;;
65206;SDS011;58477;48.072;11.970;2024-02-26T05:55:35;1.55;;;1.45;;
65206;SDS011;58477;48.072;11.970;2024-02-26T05:58:01;2.10;;;1.92;;
65206;SDS011;58477;48.072;11.970;2024-02-26T06:00:26;3.33;;;1.92;;
65206;SDS011;58477;48.072;11.970;2024-02-26T06:02:51;2.60;;;2.15;;
65206;SDS011;58477;48.072;11.970;2024-02-26T06:05:17;2.67;;;1.77;;
65206;SDS011;58477;48.072;11.970;2024-02-26T06:07:42;1.80;;;1.55;;
65206;SDS011;58477;48.072;11.970;2024-02-26T06:10:08;4.40;;;2.60;;
65206;SDS011;58477;48.072;11.970;2024-02-26T06:12:37;1.73;;;1.63;;
65206;SDS011;58477;48.072;11.970;2024-02-26T06:15:02;1.92;;;1.75;;
65206;SDS011;58477;48.072;11.970;2024-02-26T06:17:29;1.90;;;1.70;;
65206;SDS011;58477;48.072;11.970;2024-02-26T06:19:54;2.10;;;1.42;;
65206;SDS011;58477;48.072;11.970;2024-02-26T06:22:20;2.88;;;2.08;;
65206;SDS011;58477;48.072;11.970;2024-02-26T06:24:45;2.45;;;1.92;;
65206;SDS011;58477;48.072;11.970;2024-02-26T06:27:10;2.38;;;1.88;;
65206;SDS011;58477;48.072;11.970;2024-02-26T06:29:36;2.95;;;2.03;;
65206;SDS011;58477;48.072;11.970;2024-02-26T06:32:01;2.55;;;2.00;;
65206;SDS011;58477;48.072;11.970;2024-02-26T06:34:27;4.38;;;3.17;;
65206;SDS011;58477;48.072;11.970;2024-02-26T06:36:52;15.05;;;7.85;;
65206;SDS011;58477;48.072;11.970;2024-02-26T06:39:17;15.30;;;6.60;;
65206;SDS011;58477;48.072;11.970;2024-02-26T06:41:44;2.50;;;2.17;;
65206;SDS011;58477;48.072;11.970;2024-02-26T06:44:11;2.83;;;2.25;;
65206;SDS011;58477;48.072;11.970;2024-02-26T06:46:38;7.70;;;2.22;;
65206;SDS011;58477;48.072;11.970;2024-02-26T06:49:03;2.67;;;2.28;;
65206;SDS011;58477;48.072;11.970;2024-02-26T06:51:28;3.00;;;2.10;;
65206;SDS011;58477;48.072;11.970;2024-02-26T06:53:54;2.47;;;2.00;;
65206;SDS011;58477;48.072;11.970;2024-02-26T06:56:19;2.85;;;1.88;;
65206;SDS011;58477;48.072;11.970;2024-02-26T06:58:44;2.33;;;1.95;;
65206;SDS011;58477;48.072;11.970;2024-02-26T07:01:11;2.05;;;1.67;;
65206;SDS011;58477;48.072;11.970;2024-02-26T07:03:37;1.85;;;1.67;;
65206;SDS011;58477;48.072;11.970;2024-02-26T07:06:05;1.80;;;1.58;;
65206;SDS011;58477;48.072;11.970;2024-02-26T07:08:30;2.00;;;1.80;;
65206;SDS011;58477;48.072;11.970;2024-02-26T07:10:56;2.35;;;2.03;;
65206;SDS011;58477;48.072;11.970;2024-02-26T07:13:21;1.70;;;1.52;;
65206;SDS011;58477;48.072;11.970;2024-02-26T07:15:47;1.67;;;1.58;;
65206;SDS011;58477;48.072;11.970;2024-02-26T07:18:12;2.10;;;1.98;;
65206;SDS011;58477;48.072;11.970;2024-02-26T07:20:37;2.75;;;1.95;;
65206;SDS011;58477;48.072;11.970;2024-02-26T07:23:03;3.00;;;2.22;;
65206;SDS011;58477;48.072;11.970;2024-02-26T07:25:28;3.00;;;2.53;;
65206;SDS011;58477;48.072;11.970;2024-02-26T07:27:54;2.50;;;1.98;;
65206;SDS011;58477;48.072;11.970;2024-02-26T07:30:19;2.65;;;1.98;;
65206;SDS011;58477;48.072;11.970;2024-02-26T07:32:44;2.30;;;2.10;;
65206;SDS011;58477;48.072;11.970;2024-02-26T07:35:10;2.13;;;1.92;;
65206;SDS011;58477;48.072;11.970;2024-02-26T07:37:35;4.25;;;2.00;;
65206;SDS011;58477;48.072;11.970;2024-02-26T07:40:00;2.50;;;1.92;;
65206;SDS011;58477;48.072;11.970;2024-02-26T07:42:26;2.40;;;1.88;;
65206;SDS011;58477;48.072;11.970;2024-02-26T07:44:52;1.85;;;1.73;;
65206;SDS011;58477;48.072;11.970;2024-02-26T07:47:18;1.73;;;1.60;;
65206;SDS011;58477;48.072;11.970;2024-02-26T07:49:43;3.08;;;1.90;;
65206;SDS011;58477;48.072;11.970;2024-02-26T07:52:10;7.95;;;3.50;;
65206;SDS011;58477;48.072;11.970;2024-02-26T07:54:35;23.98;;;12.27;;
65206;SDS011;58477;48.072;11.970;2024-02-26T07:57:01;4.03;;;3.13;;
65206;SDS011;58477;48.072;11.970;2024-02-26T07:59:28;2.67;;;2.08;;
65206;SDS011;58477;48.072;11.970;2024-02-26T08:01:54;2.80;;;2.47;;
65206;SDS011;58477;48.072;11.970;2024-02-26T08:04:19;4.82;;;2.80;;
65206;SDS011;58477;48.072;11.970;2024-02-26T08:06:45;3.60;;;3.25;;
65206;SDS011;58477;48.072;11.970;2024-02-26T08:09:10;2.63;;;2.42;;
65206;SDS011;58477;48.072;11.970;2024-02-26T08:11:37;2.90;;;2.42;;
65206;SDS011;58477;48.072;11.970;2024-02-26T08:14:03;2.22;;;1.90;;
65206;SDS011;58477;48.072;11.970;2024-02-26T08:16:28;1.63;;;1.50;;
65206;SDS011;58477;48.072;11.970;2024-02-26T08:18:53;1.50;;;1.40;;
65206;SDS011;58477;48.072;11.970;2024-02-26T08:21:20;1.60;;;1.50;;
65206;SDS011;58477;48.072;11.970;2024-02-26T08:23:46;2.22;;;1.52;;
65206;SDS011;58477;48.072;11.970;2024-02-26T08:26:11;2.60;;;1.30;;
65206;SDS011;58477;48.072;11.970;2024-02-26T08:28:37;1.00;;;1.00;;
65206;SDS011;58477;48.072;11.970;2024-02-26T08:31:03;4.32;;;1.50;;
65206;SDS011;58477;48.072;11.970;2024-02-26T08:33:28;1.60;;;1.50;;
65206;SDS011;58477;48.072;11.970;2024-02-26T08:35:55;1.30;;;1.20;;
65206;SDS011;58477;48.072;11.970;2024-02-26T08:38:20;1.90;;;1.45;;
65206;SDS011;58477;48.072;11.970;2024-02-26T08:40:45;1.80;;;1.63;;
65206;SDS011;58477;48.072;11.970;2024-02-26T08:43:11;1.75;;;1.50;;
65206;SDS011;58477;48.072;11.970;2024-02-26T08:45:36;3.15;;;1.80;;
65206;SDS011;58477;48.072;11.970;2024-02-26T08:48:02;2.90;;;2.00;;
65206;SDS011;58477;48.072;11.970;2024-02-26T08:50:27;2.10;;;1.90;;
65206;SDS011;58477;48.072;11.970;2024-02-26T08:52:53;2.03;;;1.58;;
65206;SDS011;58477;48.072;11.970;2024-02-26T08:55:18;3.70;;;2.30;;
65206;SDS011;58477;48.072;11.970;2024-02-26T08:57:44;2.30;;;2.10;;
65206;SDS011;58477;48.072;11.970;2024-02-26T09:00:10;3.15;;;2.10;;
65206;SDS011;58477;48.072;11.970;2024-02-26T09:02:36;2.42;;;1.80;;
65206;SDS011;58477;48.072;11.970;2024-02-26T09:05:04;2.58;;;2.08;;
65206;SDS011;58477;48.072;11.970;2024-02-26T09:07:30;1.55;;;1.40;;
65206;SDS011;58477;48.072;11.970;2024-02-26T09:09:56;2.58;;;1.63;;
65206;SDS011;58477;48.072;11.970;2024-02-26T09:12:22;1.45;;;1.35;;
65206;SDS011;58477;48.072;11.970;2024-02-26T09:14:47;1.60;;;1.50;;
65206;SDS011;58477;48.072;11.970;2024-02-26T09:17:13;1.55;;;1.27;;
65206;SDS011;58477;48.072;11.970;2024-02-26T09:19:38;1.70;;;1.50;;
65206;SDS011;58477;48.072;11.970;2024-02-26T09:22:03;3.85;;;1.50;;
65206;SDS011;58477;48.072;11.970;2024-02-26T09:24:29;2.25;;;1.40;;
65206;SDS011;58477;48.072;11.970;2024-02-26T09:26:54;1.45;;;1.20;;
65206;SDS011;58477;48.072;11.970;2024-02-26T09:29:20;2.50;;;1.20;;
65206;SDS011;58477;48.072;11.970;2024-02-26T09:31:45;1.60;;;1.13;;
65206;SDS011;58477;48.072;11.970;2024-02-26T09:34:12;2.05;;;1.10;;
65206;SDS011;58477;48.072;11.970;2024-02-26T09:36:38;1.35;;;1.20;;
65206;SDS011;58477;48.072;11.970;2024-02-26T09:39:03;1.50;;;1.10;;
65206;SDS011;58477;48.072;11.970;2024-02-26T09:41:30;2.65;;;0.80;;
65206;SDS011;58477;48.072;11.970;2024-02-26T09:43:56;1.75;;;1.17;;
65206;SDS011;58477;48.072;11.970;2024-02-26T09:46:25;1.40;;;1.00;;
65206;SDS011;58477;48.072;11.970;2024-02-26T09:48:51;0.93;;;0.90;;
65206;SDS011;58477;48.072;11.970;2024-02-26T09:51:16;1.40;;;0.95;;
65206;SDS011;58477;48.072;11.970;2024-02-26T09:53:43;0.80;;;0.80;;
65206;SDS011;58477;48.072;11.970;2024-02-26T09:56:11;0.80;;;0.80;;
65206;SDS011;58477;48.072;11.970;2024-02-26T09:58:38;2.15;;;1.10;;
65206;SDS011;58477;48.072;11.970;2024-02-26T10:01:08;1.73;;;0.80;;
65206;SDS011;58477;48.072;11.970;2024-02-26T10:03:42;0.90;;;0.85;;
65206;SDS011;58477;48.072;11.970;2024-02-26T10:06:10;2.83;;;1.08;;
65206;SDS011;58477;48.072;11.970;2024-02-26T10:08:36;1.23;;;1.13;;
65206;SDS011;58477;48.072;11.970;2024-02-26T10:11:02;2.50;;;1.85;;
65206;SDS011;58477;48.072;11.970;2024-02-26T10:13:32;1.50;;;1.40;;
65206;SDS011;58477;48.072;11.970;2024-02-26T10:15:57;1.38;;;1.27;;
65206;SDS011;58477;48.072;11.970;2024-02-26T10:18:23;1.17;;;1.10;;
65206;SDS011;58477;48.072;11.970;2024-02-26T10:20:58;1.20;;;1.10;;
65206;SDS011;58477;48.072;11.970;2024-02-26T10:23:27;1.95;;;1.50;;
65206;SDS011;58477;48.072;11.970;2024-02-26T10:25:55;3.55;;;1.80;;
65206;SDS011;58477;48.072;11.970;2024-02-26T10:28:22;2.55;;;1.77;;
65206;SDS011;58477;48.072;11.970;2024-02-26T10:30:47;2.03;;;1.67;;
65206;SDS011;58477;48.072;11.970;2024-02-26T10:33:13;2.33;;;1.70;;
65206;SDS011;58477;48.072;11.970;2024-02-26T10:35:39;3.97;;;1.67;;
65206;SDS011;58477;48.072;11.970;2024-02-26T10:38:10;2.67;;;1.58;;
65206;SDS011;58477;48.072;11.970;2024-02-26T10:40:35;1.70;;;1.60;;
65206;SDS011;58477;48.072;11.970;2024-02-26T10:43:00;2.88;;;1.42;;
65206;SDS011;58477;48.072;11.970;2024-02-26T10:45:27;2.45;;;1.60;;
65206;SDS011;58477;48.072;11.970;2024-02-26T10:47:52;1.48;;;1.38;;
65206;SDS011;58477;48.072;11.970;2024-02-26T10:50:18;1.85;;;1.35;;
65206;SDS011;58477;48.072;11.970;2024-02-26T10:52:44;2.33;;;1.52;;
65206;SDS011;58477;48.072;11.970;2024-02-26T10:55:13;1.13;;;1.13;;
65206;SDS011;58477;48.072;11.970;2024-02-26T10:57:43;1.80;;;1.10;;
65206;SDS011;58477;48.072;11.970;2024-02-26T11:00:10;1.65;;;1.13;;
65206;SDS011;58477;48.072;11.970;2024-02-26T11:02:38;1.63;;;1.35;;
65206;SDS011;58477;48.072;11.970;2024-02-26T11:05:06;1.83;;;1.20;;
65206;SDS011;58477;48.072;11.970;2024-02-26T11:07:35;1.27;;;1.17;;
65206;SDS011;58477;48.072;11.970;2024-02-26T11:10:02;2.20;;;1.20;;
65206;SDS011;58477;48.072;11.970;2024-02-26T11:12:29;1.02;;;1.02;;
65206;SDS011;58477;48.072;11.970;2024-02-26T11:14:56;2.42;;;1.27;;
65206;SDS011;58477;48.072;11.970;2024-02-26T11:17:23;1.20;;;1.10;;
65206;SDS011;58477;48.072;11.970;2024-02-26T11:19:51;2.90;;;1.45;;
65206;SDS011;58477;48.072;11.970;2024-02-26T11:22:20;1.63;;;1.40;;
65206;SDS011;58477;48.072;11.970;2024-02-26T11:24:47;2.30;;;1.30;;
65206;SDS011;58477;48.072;11.970;2024-02-26T11:27:14;4.47;;;1.60;;
65206;SDS011;58477;48.072;11.970;2024-02-26T11:29:44;1.55;;;1.23;;
65206;SDS011;58477;48.072;11.970;2024-02-26T11:32:13;0.98;;;0.90;;
65206;SDS011;58477;48.072;11.970;2024-02-26T11:34:39;1.58;;;1.00;;
65206;SDS011;58477;48.072;11.970;2024-02-26T11:37:09;0.85;;;0.70;;
65206;SDS011;58477;48.072;11.970;2024-02-26T11:39:41;1.25;;;1.02;;
65206;SDS011;58477;48.072;11.970;2024-02-26T11:42:07;0.88;;;0.88;;
65206;SDS011;58477;48.072;11.970;2024-02-26T11:44:34;1.10;;;1.00;;
65206;SDS011;58477;48.072;11.970;2024-02-26T11:47:13;1.08;;;0.98;;
65206;SDS011;58477;48.072;11.970;2024-02-26T11:49:43;1.30;;;1.20;;
65206;SDS011;58477;48.072;11.970;2024-02-26T11:52:09;4.15;;;1.25;;
65206;SDS011;58477;48.072;11.970;2024-02-26T11:57:04;1.88;;;1.23;;
65206;SDS011;58477;48.072;11.970;2024-02-26T11:59:38;1.88;;;1.27;;
65206;SDS011;58477;48.072;11.970;2024-02-26T12:02:05;0.95;;;0.95;;
65206;SDS011;58477;48.072;11.970;2024-02-26T12:04:32;0.90;;;0.90;;
65206;SDS011;58477;48.072;11.970;2024-02-26T12:07:00;2.47;;;1.40;;
65206;SDS011;58477;48.072;11.970;2024-02-26T12:12:08;3.13;;;1.00;;
65206;SDS011;58477;48.072;11.970;2024-02-26T12:14:50;3.80;;;1.20;;
65206;SDS011;58477;48.072;11.970;2024-02-26T12:17:25;4.07;;;1.05;;
65206;SDS011;58477;48.072;11.970;2024-02-26T12:19:51;1.50;;;0.77;;
65206;SDS011;58477;48.072;11.970;2024-02-26T12:22:18;1.20;;;0.93;;
65206;SDS011;58477;48.072;11.970;2024-02-26T12:24:44;1.55;;;1.13;;
65206;SDS011;58477;48.072;11.970;2024-02-26T12:27:10;1.58;;;0.95;;
65206;SDS011;58477;48.072;11.970;2024-02-26T12:29:35;0.95;;;0.70;;
65206;SDS011;58477;48.072;11.970;2024-02-26T12:32:01;0.95;;;0.90;;
65206;SDS011;58477;48.072;11.970;2024-02-26T12:34:28;1.08;;;0.93;;
65206;SDS011;58477;48.072;11.970;2024-02-26T12:36:53;1.27;;;1.10;;
65206;SDS011;58477;48.072;11.970;2024-02-26T12:39:19;1.13;;;0.98;;
65206;SDS011;58477;48.072;11.970;2024-02-26T12:41:46;4.13;;;1.45;;
65206;SDS011;58477;48.072;11.970;2024-02-26T12:44:15;1.50;;;1.25;;
65206;SDS011;58477;48.072;11.970;2024-02-26T12:46:41;3.28;;;1.10;;
65206;SDS011;58477;48.072;11.970;2024-02-26T12:49:07;1.30;;;0.90;;
65206;SDS011;58477;48.072;11.970;2024-02-26T12:51:33;4.60;;;0.80;;
65206;SDS011;58477;48.072;11.970;2024-02-26T12:53:58;1.08;;;0.98;;
65206;SDS011;58477;48.072;11.970;2024-02-26T12:56:24;1.30;;;1.20;;
65206;SDS011;58477;48.072;11.970;2024-02-26T12:58:51;2.38;;;0.80;;
65206;SDS011;58477;48.072;11.970;2024-02-26T13:01:18;1.70;;;1.13;;
65206;SDS011;58477;48.072;11.970;2024-02-26T13:03:48;1.30;;;1.20;;
65206;SDS011;58477;48.072;11.970;2024-02-26T13:06:14;2.17;;;1.40;;
65206;SDS011;58477;48.072;11.970;2024-02-26T13:08:40;2.55;;;1.58;;
65206;SDS011;58477;48.072;11.970;2024-02-26T13:11:05;1.50;;;1.38;;
65206;SDS011;58477;48.072;11.970;2024-02-26T13:13:31;2.63;;;1.58;;
65206;SDS011;58477;48.072;11.970;2024-02-26T13:16:03;1.92;;;1.40;;
65206;SDS011;58477;48.072;11.970;2024-02-26T13:18:29;2.25;;;1.63;;
65206;SDS011;58477;48.072;11.970;2024-02-26T13:21:06;1.92;;;1.40;;
65206;SDS011;58477;48.072;11.970;2024-02-26T13:23:36;1.98;;;1.50;;
65206;SDS011;58477;48.072;11.970;2024-02-26T13:26:05;1.63;;;1.20;;
65206;SDS011;58477;48.072;11.970;2024-02-26T13:28:30;1.95;;;1.38;;
65206;SDS011;58477;48.072;11.970;2024-02-26T13:30:57;1.83;;;1.20;;
65206;SDS011;58477;48.072;11.970;2024-02-26T13:33:23;6.47;;;1.55;;
65206;SDS011;58477;48.072;11.970;2024-02-26T13:35:49;1.95;;;1.20;;
65206;SDS011;58477;48.072;11.970;2024-02-26T13:38:18;3.15;;;1.40;;
65206;SDS011;58477;48.072;11.970;2024-02-26T13:40:43;1.77;;;1.42;;
65206;SDS011;58477;48.072;11.970;2024-02-26T13:43:09;1.10;;;0.90;;
65206;SDS011;58477;48.072;11.970;2024-02-26T13:45:35;1.10;;;0.90;;
65206;SDS011;58477;48.072;11.970;2024-02-26T13:48:06;1.20;;;1.10;;
65206;SDS011;58477;48.072;11.970;2024-02-26T13:50:33;1.65;;;1.10;;
65206;SDS011;58477;48.072;11.970;2024-02-26T13:52:58;12.55;;;1.85;;
65206;SDS011;58477;48.072;11.970;2024-02-26T13:55:27;1.33;;;1.10;;
65206;SDS011;58477;48.072;11.970;2024-02-26T13:57:57;1.48;;;1.10;;
65206;SDS011;58477;48.072;11.970;2024-02-26T14:00:23;1.52;;;1.13;;
65206;SDS011;58477;48.072;11.970;2024-02-26T14:02:49;1.80;;;1.00;;
65206;SDS011;58477;48.072;11.970;2024-02-26T14:05:15;1.40;;;1.30;;
65206;SDS011;58477;48.072;11.970;2024-02-26T14:07:40;1.23;;;1.10;;
65206;SDS011;58477;48.072;11.970;2024-02-26T14:10:07;1.48;;;1.02;;
65206;SDS011;58477;48.072;11.970;2024-02-26T14:12:35;1.38;;;1.10;;
65206;SDS011;58477;48.072;11.970;2024-02-26T14:15:00;1.17;;;0.90;;
65206;SDS011;58477;48.072;11.970;2024-02-26T14:17:29;1.05;;;0.98;;
65206;SDS011;58477;48.072;11.970;2024-02-26T14:19:55;0.90;;;0.70;;
65206;SDS011;58477;48.072;11.970;2024-02-26T14:22:20;1.73;;;0.95;;
65206;SDS011;58477;48.072;11.970;2024-02-26T14:24:46;1.15;;;0.93;;
65206;SDS011;58477;48.072;11.970;2024-02-26T14:27:11;1.20;;;1.08;;
65206;SDS011;58477;48.072;11.970;2024-02-26T14:29:40;2.95;;;1.00;;
65206;SDS011;58477;48.072;11.970;2024-02-26T14:32:08;1.20;;;1.10;;